Terminal Aerodrome Forecast
Issued by NWS Grand Forks, ND

Home | Current Version | Previous Version | Graphics & Text | Print | Product List | Glossary On
Versions: 1 2 3 4 5 6 7 8 9 10 11 12 13 14
527
FTUS43 KFGF 180520
TAFFAR
TAF
KFAR 180520Z 1806/1906 19012KT P6SM SKC WS020/22045KT
     FM181200 21010KT P6SM SCT250 WS020/29040KT
     FM181400 26013G23KT P6SM FEW250 WS020/30040KT
     FM181700 29019G29KT P6SM FEW200
     FM190000 27010KT P6SM FEW250=

USA.gov is the U.S. government's official web portal to all federal, state and local government web resources and services.